sensor_id;sensor_type;location;lat;lon;timestamp;temperature;humidity
16160;DHT22;8185;57.818;15.224;2023-05-20T00:02:13;6.40;99.90
16160;DHT22;8185;57.818;15.224;2023-05-20T00:04:41;6.40;99.90
16160;DHT22;8185;57.818;15.224;2023-05-20T00:07:08;6.30;99.90
16160;DHT22;8185;57.818;15.224;2023-05-20T00:09:37;6.30;99.90
16160;DHT22;8185;57.818;15.224;2023-05-20T00:12:05;6.20;99.90
16160;DHT22;8185;57.818;15.224;2023-05-20T00:14:32;6.00;99.90
16160;DHT22;8185;57.818;15.224;2023-05-20T00:17:00;5.90;99.90
16160;DHT22;8185;57.818;15.224;2023-05-20T00:19:28;5.90;99.90
16160;DHT22;8185;57.818;15.224;2023-05-20T00:21:56;5.80;99.90
16160;DHT22;8185;57.818;15.224;2023-05-20T00:24:23;5.70;99.90
16160;DHT22;8185;57.818;15.224;2023-05-20T00:26:52;5.70;99.90
16160;DHT22;8185;57.818;15.224;2023-05-20T00:29:20;5.70;99.90
16160;DHT22;8185;57.818;15.224;2023-05-20T00:31:47;5.70;99.90
16160;DHT22;8185;57.818;15.224;2023-05-20T00:34:15;5.60;99.90
16160;DHT22;8185;57.818;15.224;2023-05-20T00:36:43;5.60;99.90
16160;DHT22;8185;57.818;15.224;2023-05-20T00:39:11;5.60;99.90
16160;DHT22;8185;57.818;15.224;2023-05-20T00:41:38;5.60;99.90
16160;DHT22;8185;57.818;15.224;2023-05-20T00:44:05;5.60;99.90
16160;DHT22;8185;57.818;15.224;2023-05-20T00:46:33;5.50;99.90
16160;DHT22;8185;57.818;15.224;2023-05-20T00:49:01;5.40;99.90
16160;DHT22;8185;57.818;15.224;2023-05-20T00:51:28;5.40;99.90
16160;DHT22;8185;57.818;15.224;2023-05-20T00:53:57;5.20;99.90
16160;DHT22;8185;57.818;15.224;2023-05-20T00:56:25;5.10;99.90
16160;DHT22;8185;57.818;15.224;2023-05-20T00:58:52;5.00;99.90
16160;DHT22;8185;57.818;15.224;2023-05-20T01:01:19;4.90;99.90
16160;DHT22;8185;57.818;15.224;2023-05-20T01:03:47;4.90;99.90
16160;DHT22;8185;57.818;15.224;2023-05-20T01:06:14;4.80;99.90
16160;DHT22;8185;57.818;15.224;2023-05-20T01:08:41;4.80;99.90
16160;DHT22;8185;57.818;15.224;2023-05-20T01:11:12;4.80;99.90
16160;DHT22;8185;57.818;15.224;2023-05-20T01:13:44;4.70;99.90
16160;DHT22;8185;57.818;15.224;2023-05-20T01:16:14;4.70;99.90
16160;DHT22;8185;57.818;15.224;2023-05-20T01:18:43;4.60;99.90
16160;DHT22;8185;57.818;15.224;2023-05-20T01:21:14;4.50;99.90
16160;DHT22;8185;57.818;15.224;2023-05-20T01:23:44;4.50;99.90
16160;DHT22;8185;57.818;15.224;2023-05-20T01:26:11;4.40;99.90
16160;DHT22;8185;57.818;15.224;2023-05-20T01:28:40;4.30;99.90
16160;DHT22;8185;57.818;15.224;2023-05-20T01:31:14;4.30;99.90
16160;DHT22;8185;57.818;15.224;2023-05-20T01:33:44;4.20;99.90
16160;DHT22;8185;57.818;15.224;2023-05-20T01:36:16;4.10;99.90
16160;DHT22;8185;57.818;15.224;2023-05-20T01:38:46;4.00;99.90
16160;DHT22;8185;57.818;15.224;2023-05-20T01:41:14;3.90;99.90
16160;DHT22;8185;57.818;15.224;2023-05-20T01:43:42;3.90;99.90
16160;DHT22;8185;57.818;15.224;2023-05-20T01:46:10;3.80;99.90
16160;DHT22;8185;57.818;15.224;2023-05-20T01:48:37;3.80;99.90
16160;DHT22;8185;57.818;15.224;2023-05-20T01:51:04;3.90;99.90
16160;DHT22;8185;57.818;15.224;2023-05-20T01:53:31;3.60;99.90
16160;DHT22;8185;57.818;15.224;2023-05-20T01:56:00;3.60;99.90
16160;DHT22;8185;57.818;15.224;2023-05-20T01:58:27;3.60;99.90
16160;DHT22;8185;57.818;15.224;2023-05-20T02:00:54;3.50;99.90
16160;DHT22;8185;57.818;15.224;2023-05-20T02:03:22;3.60;99.90
16160;DHT22;8185;57.818;15.224;2023-05-20T02:05:49;3.70;99.90
16160;DHT22;8185;57.818;15.224;2023-05-20T02:08:16;3.70;99.90
16160;DHT22;8185;57.818;15.224;2023-05-20T02:10:43;3.70;99.90
16160;DHT22;8185;57.818;15.224;2023-05-20T02:13:12;3.70;99.90
16160;DHT22;8185;57.818;15.224;2023-05-20T02:15:40;3.70;99.90
16160;DHT22;8185;57.818;15.224;2023-05-20T02:18:07;3.70;99.90
16160;DHT22;8185;57.818;15.224;2023-05-20T02:20:37;3.60;99.90
16160;DHT22;8185;57.818;15.224;2023-05-20T02:23:04;3.60;99.90
16160;DHT22;8185;57.818;15.224;2023-05-20T02:25:31;3.70;99.90
16160;DHT22;8185;57.818;15.224;2023-05-20T02:27:58;3.80;99.90
16160;DHT22;8185;57.818;15.224;2023-05-20T02:30:27;3.90;99.90
16160;DHT22;8185;57.818;15.224;2023-05-20T02:32:55;3.90;99.90
16160;DHT22;8185;57.818;15.224;2023-05-20T02:35:22;3.80;99.90
16160;DHT22;8185;57.818;15.224;2023-05-20T02:37:49;3.80;99.90
16160;DHT22;8185;57.818;15.224;2023-05-20T02:40:17;3.70;99.90
16160;DHT22;8185;57.818;15.224;2023-05-20T02:42:44;3.70;99.90
16160;DHT22;8185;57.818;15.224;2023-05-20T02:45:11;3.70;99.90
16160;DHT22;8185;57.818;15.224;2023-05-20T02:47:40;3.70;99.90
16160;DHT22;8185;57.818;15.224;2023-05-20T02:50:08;3.70;99.90
16160;DHT22;8185;57.818;15.224;2023-05-20T02:52:35;3.70;99.90
16160;DHT22;8185;57.818;15.224;2023-05-20T02:55:02;3.80;99.90
16160;DHT22;8185;57.818;15.224;2023-05-20T02:57:29;3.90;99.90
16160;DHT22;8185;57.818;15.224;2023-05-20T02:59:57;3.80;99.90
16160;DHT22;8185;57.818;15.224;2023-05-20T03:02:24;3.70;99.90
16160;DHT22;8185;57.818;15.224;2023-05-20T03:04:53;3.70;99.90
16160;DHT22;8185;57.818;15.224;2023-05-20T03:07:20;3.60;99.90
16160;DHT22;8185;57.818;15.224;2023-05-20T03:09:47;3.60;99.90
16160;DHT22;8185;57.818;15.224;2023-05-20T03:12:15;3.60;99.90
16160;DHT22;8185;57.818;15.224;2023-05-20T03:14:42;3.60;99.90
16160;DHT22;8185;57.818;15.224;2023-05-20T03:17:09;3.70;99.90
16160;DHT22;8185;57.818;15.224;2023-05-20T03:19:37;3.70;99.90
16160;DHT22;8185;57.818;15.224;2023-05-20T03:22:05;3.70;99.90
16160;DHT22;8185;57.818;15.224;2023-05-20T03:24:32;3.80;99.90
16160;DHT22;8185;57.818;15.224;2023-05-20T03:27:00;3.90;99.90
16160;DHT22;8185;57.818;15.224;2023-05-20T03:29:27;3.90;99.90
16160;DHT22;8185;57.818;15.224;2023-05-20T03:31:54;4.00;99.90
16160;DHT22;8185;57.818;15.224;2023-05-20T03:34:22;3.90;99.90
16160;DHT22;8185;57.818;15.224;2023-05-20T03:36:50;4.00;99.90
16160;DHT22;8185;57.818;15.224;2023-05-20T03:39:19;4.10;99.90
16160;DHT22;8185;57.818;15.224;2023-05-20T03:41:46;4.20;99.90
16160;DHT22;8185;57.818;15.224;2023-05-20T03:44:13;4.30;99.90
16160;DHT22;8185;57.818;15.224;2023-05-20T03:46:40;4.40;99.90
16160;DHT22;8185;57.818;15.224;2023-05-20T03:49:07;4.60;99.90
16160;DHT22;8185;57.818;15.224;2023-05-20T03:51:35;4.70;99.90
16160;DHT22;8185;57.818;15.224;2023-05-20T03:54:02;4.90;99.90
16160;DHT22;8185;57.818;15.224;2023-05-20T03:56:31;5.10;99.90
16160;DHT22;8185;57.818;15.224;2023-05-20T03:58:58;5.30;99.90
16160;DHT22;8185;57.818;15.224;2023-05-20T04:01:25;5.20;99.90
16160;DHT22;8185;57.818;15.224;2023-05-20T04:03:52;5.30;99.90
16160;DHT22;8185;57.818;15.224;2023-05-20T04:06:20;5.20;99.90
16160;DHT22;8185;57.818;15.224;2023-05-20T04:08:47;5.10;99.90
16160;DHT22;8185;57.818;15.224;2023-05-20T04:11:14;5.00;99.90
16160;DHT22;8185;57.818;15.224;2023-05-20T04:13:43;4.90;99.90
16160;DHT22;8185;57.818;15.224;2023-05-20T04:16:10;4.90;99.90
16160;DHT22;8185;57.818;15.224;2023-05-20T04:18:37;4.90;99.90
16160;DHT22;8185;57.818;15.224;2023-05-20T04:21:05;4.80;99.90
16160;DHT22;8185;57.818;15.224;2023-05-20T04:23:32;4.90;99.90
16160;DHT22;8185;57.818;15.224;2023-05-20T04:26:00;4.90;99.90
16160;DHT22;8185;57.818;15.224;2023-05-20T04:28:27;4.90;99.90
16160;DHT22;8185;57.818;15.224;2023-05-20T04:31:00;4.90;99.90
16160;DHT22;8185;57.818;15.224;2023-05-20T04:33:29;5.00;99.90
16160;DHT22;8185;57.818;15.224;2023-05-20T04:35:57;5.10;99.90
16160;DHT22;8185;57.818;15.224;2023-05-20T04:38:25;5.20;99.90
16160;DHT22;8185;57.818;15.224;2023-05-20T04:40:54;5.40;99.90
16160;DHT22;8185;57.818;15.224;2023-05-20T04:43:23;5.70;99.90
16160;DHT22;8185;57.818;15.224;2023-05-20T04:45:50;5.90;99.90
16160;DHT22;8185;57.818;15.224;2023-05-20T04:48:20;6.20;99.90
16160;DHT22;8185;57.818;15.224;2023-05-20T04:50:48;6.40;99.90
16160;DHT22;8185;57.818;15.224;2023-05-20T04:53:15;6.60;99.90
16160;DHT22;8185;57.818;15.224;2023-05-20T04:55:43;6.90;99.90
16160;DHT22;8185;57.818;15.224;2023-05-20T04:58:10;7.10;99.90
16160;DHT22;8185;57.818;15.224;2023-05-20T05:00:40;7.40;99.90
16160;DHT22;8185;57.818;15.224;2023-05-20T05:03:08;7.70;99.90
16160;DHT22;8185;57.818;15.224;2023-05-20T05:05:36;7.80;99.90
16160;DHT22;8185;57.818;15.224;2023-05-20T05:08:04;8.00;99.90
16160;DHT22;8185;57.818;15.224;2023-05-20T05:10:32;8.20;99.90
16160;DHT22;8185;57.818;15.224;2023-05-20T05:12:59;8.20;99.90
16160;DHT22;8185;57.818;15.224;2023-05-20T05:15:27;8.30;99.90
16160;DHT22;8185;57.818;15.224;2023-05-20T05:17:54;8.40;99.90
16160;DHT22;8185;57.818;15.224;2023-05-20T05:20:21;8.60;99.90
16160;DHT22;8185;57.818;15.224;2023-05-20T05:22:50;8.80;99.90
16160;DHT22;8185;57.818;15.224;2023-05-20T05:25:18;8.90;99.90
16160;DHT22;8185;57.818;15.224;2023-05-20T05:27:45;9.10;99.90
16160;DHT22;8185;57.818;15.224;2023-05-20T05:30:13;9.30;99.90
16160;DHT22;8185;57.818;15.224;2023-05-20T05:32:41;9.50;99.90
16160;DHT22;8185;57.818;15.224;2023-05-20T05:35:08;9.50;99.90
16160;DHT22;8185;57.818;15.224;2023-05-20T05:37:36;9.60;99.90
16160;DHT22;8185;57.818;15.224;2023-05-20T05:40:06;9.70;99.90
16160;DHT22;8185;57.818;15.224;2023-05-20T05:42:33;9.90;99.90
16160;DHT22;8185;57.818;15.224;2023-05-20T05:45:01;10.00;99.90
16160;DHT22;8185;57.818;15.224;2023-05-20T05:47:28;10.20;99.90
16160;DHT22;8185;57.818;15.224;2023-05-20T05:49:57;10.40;99.90
16160;DHT22;8185;57.818;15.224;2023-05-20T05:52:25;10.60;99.90
16160;DHT22;8185;57.818;15.224;2023-05-20T05:54:53;10.80;99.90
16160;DHT22;8185;57.818;15.224;2023-05-20T05:57:21;10.90;99.90
16160;DHT22;8185;57.818;15.224;2023-05-20T05:59:49;11.10;99.90
16160;DHT22;8185;57.818;15.224;2023-05-20T06:02:16;11.20;99.90
16160;DHT22;8185;57.818;15.224;2023-05-20T06:04:43;11.00;99.90
16160;DHT22;8185;57.818;15.224;2023-05-20T06:07:10;11.10;99.90
16160;DHT22;8185;57.818;15.224;2023-05-20T06:09:37;11.30;99.90
16160;DHT22;8185;57.818;15.224;2023-05-20T06:12:05;11.30;99.90
16160;DHT22;8185;57.818;15.224;2023-05-20T06:14:34;11.70;99.90
16160;DHT22;8185;57.818;15.224;2023-05-20T06:17:01;11.80;99.90
16160;DHT22;8185;57.818;15.224;2023-05-20T06:19:28;11.90;99.90
16160;DHT22;8185;57.818;15.224;2023-05-20T06:21:56;11.90;99.90
16160;DHT22;8185;57.818;15.224;2023-05-20T06:24:23;12.20;99.90
16160;DHT22;8185;57.818;15.224;2023-05-20T06:26:51;12.50;99.90
16160;DHT22;8185;57.818;15.224;2023-05-20T06:29:18;12.70;99.90
16160;DHT22;8185;57.818;15.224;2023-05-20T06:31:47;12.90;99.90
16160;DHT22;8185;57.818;15.224;2023-05-20T06:34:14;13.10;99.90
16160;DHT22;8185;57.818;15.224;2023-05-20T06:36:41;13.20;99.90
16160;DHT22;8185;57.818;15.224;2023-05-20T06:39:08;13.40;99.90
16160;DHT22;8185;57.818;15.224;2023-05-20T06:41:37;13.60;99.90
16160;DHT22;8185;57.818;15.224;2023-05-20T06:44:05;13.60;99.90
16160;DHT22;8185;57.818;15.224;2023-05-20T06:46:32;13.60;99.90
16160;DHT22;8185;57.818;15.224;2023-05-20T06:49:01;13.90;99.90
16160;DHT22;8185;57.818;15.224;2023-05-20T06:51:28;14.00;99.90
16160;DHT22;8185;57.818;15.224;2023-05-20T06:53:56;14.00;99.90
16160;DHT22;8185;57.818;15.224;2023-05-20T06:56:23;14.30;99.90
16160;DHT22;8185;57.818;15.224;2023-05-20T06:58:50;14.30;99.90
16160;DHT22;8185;57.818;15.224;2023-05-20T07:01:17;14.50;99.90
16160;DHT22;8185;57.818;15.224;2023-05-20T07:03:44;14.50;99.90
16160;DHT22;8185;57.818;15.224;2023-05-20T07:06:13;14.60;99.90
16160;DHT22;8185;57.818;15.224;2023-05-20T07:08:40;14.70;99.90
16160;DHT22;8185;57.818;15.224;2023-05-20T07:11:07;14.70;99.90
16160;DHT22;8185;57.818;15.224;2023-05-20T07:13:34;15.00;99.90
16160;DHT22;8185;57.818;15.224;2023-05-20T07:16:02;15.10;99.90
16160;DHT22;8185;57.818;15.224;2023-05-20T07:18:29;14.90;99.90
16160;DHT22;8185;57.818;15.224;2023-05-20T07:20:56;15.00;99.90
16160;DHT22;8185;57.818;15.224;2023-05-20T07:23:25;15.20;99.90
16160;DHT22;8185;57.818;15.224;2023-05-20T07:25:52;15.50;99.90
16160;DHT22;8185;57.818;15.224;2023-05-20T07:28:20;15.60;92.60
16160;DHT22;8185;57.818;15.224;2023-05-20T07:30:47;15.60;92.60
16160;DHT22;8185;57.818;15.224;2023-05-20T07:33:15;15.70;91.30
16160;DHT22;8185;57.818;15.224;2023-05-20T07:35:43;15.80;88.20
16160;DHT22;8185;57.818;15.224;2023-05-20T07:38:10;15.90;93.00
16160;DHT22;8185;57.818;15.224;2023-05-20T07:40:39;16.00;93.70
16160;DHT22;8185;57.818;15.224;2023-05-20T07:43:07;16.10;93.40
16160;DHT22;8185;57.818;15.224;2023-05-20T07:45:34;16.30;92.10
16160;DHT22;8185;57.818;15.224;2023-05-20T07:48:02;16.40;90.30
16160;DHT22;8185;57.818;15.224;2023-05-20T07:50:30;16.50;87.90
16160;DHT22;8185;57.818;15.224;2023-05-20T07:52:59;16.50;85.90
16160;DHT22;8185;57.818;15.224;2023-05-20T07:55:26;16.60;85.00
16160;DHT22;8185;57.818;15.224;2023-05-20T07:57:54;16.50;80.50
16160;DHT22;8185;57.818;15.224;2023-05-20T08:00:22;16.50;83.50
16160;DHT22;8185;57.818;15.224;2023-05-20T08:02:49;17.00;81.90
16160;DHT22;8185;57.818;15.224;2023-05-20T08:05:17;16.90;80.10
16160;DHT22;8185;57.818;15.224;2023-05-20T08:07:44;17.10;85.90
16160;DHT22;8185;57.818;15.224;2023-05-20T08:10:11;17.00;76.30
16160;DHT22;8185;57.818;15.224;2023-05-20T08:12:38;17.00;82.50
16160;DHT22;8185;57.818;15.224;2023-05-20T08:15:08;17.00;80.50
16160;DHT22;8185;57.818;15.224;2023-05-20T08:17:35;17.20;82.00
16160;DHT22;8185;57.818;15.224;2023-05-20T08:20:04;17.30;76.60
16160;DHT22;8185;57.818;15.224;2023-05-20T08:22:32;17.50;77.50
16160;DHT22;8185;57.818;15.224;2023-05-20T08:25:02;17.50;73.60
16160;DHT22;8185;57.818;15.224;2023-05-20T08:27:30;17.60;77.70
16160;DHT22;8185;57.818;15.224;2023-05-20T08:29:57;17.70;78.70
16160;DHT22;8185;57.818;15.224;2023-05-20T08:32:26;17.70;76.20
16160;DHT22;8185;57.818;15.224;2023-05-20T08:34:53;18.00;81.50
16160;DHT22;8185;57.818;15.224;2023-05-20T08:37:20;18.10;79.90
16160;DHT22;8185;57.818;15.224;2023-05-20T08:39:47;17.90;83.50
16160;DHT22;8185;57.818;15.224;2023-05-20T08:42:20;17.70;79.60
16160;DHT22;8185;57.818;15.224;2023-05-20T08:44:47;17.90;83.00
16160;DHT22;8185;57.818;15.224;2023-05-20T08:47:16;18.10;81.30
16160;DHT22;8185;57.818;15.224;2023-05-20T08:49:44;18.20;78.50
16160;DHT22;8185;57.818;15.224;2023-05-20T08:52:12;18.30;81.80
16160;DHT22;8185;57.818;15.224;2023-05-20T08:54:43;18.30;80.40
16160;DHT22;8185;57.818;15.224;2023-05-20T08:57:11;18.20;76.30
16160;DHT22;8185;57.818;15.224;2023-05-20T08:59:41;18.10;81.90
16160;DHT22;8185;57.818;15.224;2023-05-20T09:02:09;18.20;80.60
16160;DHT22;8185;57.818;15.224;2023-05-20T09:04:36;18.50;78.80
16160;DHT22;8185;57.818;15.224;2023-05-20T09:07:05;18.50;81.30
16160;DHT22;8185;57.818;15.224;2023-05-20T09:09:33;18.50;80.50
16160;DHT22;8185;57.818;15.224;2023-05-20T09:12:01;18.60;79.30
16160;DHT22;8185;57.818;15.224;2023-05-20T09:14:28;19.00;82.90
16160;DHT22;8185;57.818;15.224;2023-05-20T09:16:56;19.00;81.00
16160;DHT22;8185;57.818;15.224;2023-05-20T09:19:23;19.10;76.00
16160;DHT22;8185;57.818;15.224;2023-05-20T09:21:52;19.10;74.70
16160;DHT22;8185;57.818;15.224;2023-05-20T09:24:25;19.00;74.50
16160;DHT22;8185;57.818;15.224;2023-05-20T09:26:52;19.00;75.30
16160;DHT22;8185;57.818;15.224;2023-05-20T09:29:20;19.10;71.10
16160;DHT22;8185;57.818;15.224;2023-05-20T09:31:47;19.10;66.80
16160;DHT22;8185;57.818;15.224;2023-05-20T09:34:15;19.10;72.70
16160;DHT22;8185;57.818;15.224;2023-05-20T09:36:44;19.50;70.20
16160;DHT22;8185;57.818;15.224;2023-05-20T09:39:15;19.80;70.30
16160;DHT22;8185;57.818;15.224;2023-05-20T09:41:54;19.80;64.60
16160;DHT22;8185;57.818;15.224;2023-05-20T09:44:22;19.60;71.30
16160;DHT22;8185;57.818;15.224;2023-05-20T09:46:50;19.70;68.10
16160;DHT22;8185;57.818;15.224;2023-05-20T09:49:18;19.80;72.30
16160;DHT22;8185;57.818;15.224;2023-05-20T09:51:47;19.80;68.20
16160;DHT22;8185;57.818;15.224;2023-05-20T09:54:18;19.90;69.10
16160;DHT22;8185;57.818;15.224;2023-05-20T09:56:47;19.90;66.30
16160;DHT22;8185;57.818;15.224;2023-05-20T09:59:16;20.00;65.10
16160;DHT22;8185;57.818;15.224;2023-05-20T10:01:44;20.20;67.80
16160;DHT22;8185;57.818;15.224;2023-05-20T10:04:12;20.50;71.20
16160;DHT22;8185;57.818;15.224;2023-05-20T10:06:54;20.60;66.90
16160;DHT22;8185;57.818;15.224;2023-05-20T10:09:35;20.70;68.70
16160;DHT22;8185;57.818;15.224;2023-05-20T10:12:14;20.50;66.10
16160;DHT22;8185;57.818;15.224;2023-05-20T10:14:53;20.00;65.50
16160;DHT22;8185;57.818;15.224;2023-05-20T10:17:27;20.30;64.20
16160;DHT22;8185;57.818;15.224;2023-05-20T10:19:57;20.50;66.90
16160;DHT22;8185;57.818;15.224;2023-05-20T10:22:29;20.40;60.70
16160;DHT22;8185;57.818;15.224;2023-05-20T10:25:03;20.40;61.70
16160;DHT22;8185;57.818;15.224;2023-05-20T10:27:43;20.40;65.10
16160;DHT22;8185;57.818;15.224;2023-05-20T10:30:18;21.00;65.90
16160;DHT22;8185;57.818;15.224;2023-05-20T10:32:51;21.90;68.80
16160;DHT22;8185;57.818;15.224;2023-05-20T10:35:22;21.50;61.70
16160;DHT22;8185;57.818;15.224;2023-05-20T10:37:51;21.60;61.90
16160;DHT22;8185;57.818;15.224;2023-05-20T10:40:20;22.10;61.90
16160;DHT22;8185;57.818;15.224;2023-05-20T10:42:49;22.90;61.80
16160;DHT22;8185;57.818;15.224;2023-05-20T10:45:26;21.80;59.80
16160;DHT22;8185;57.818;15.224;2023-05-20T10:47:54;22.20;63.80
16160;DHT22;8185;57.818;15.224;2023-05-20T10:50:33;22.50;62.20
16160;DHT22;8185;57.818;15.224;2023-05-20T10:53:04;23.20;63.10
16160;DHT22;8185;57.818;15.224;2023-05-20T10:55:35;23.30;59.40
16160;DHT22;8185;57.818;15.224;2023-05-20T10:58:05;23.60;60.10
16160;DHT22;8185;57.818;15.224;2023-05-20T11:00:34;24.40;61.10
16160;DHT22;8185;57.818;15.224;2023-05-20T11:03:02;24.50;57.40
16160;DHT22;8185;57.818;15.224;2023-05-20T11:05:30;23.90;60.50
16160;DHT22;8185;57.818;15.224;2023-05-20T11:08:01;24.80;58.00
16160;DHT22;8185;57.818;15.224;2023-05-20T11:10:29;24.10;53.60
16160;DHT22;8185;57.818;15.224;2023-05-20T11:12:57;24.00;53.80
16160;DHT22;8185;57.818;15.224;2023-05-20T11:15:25;23.90;50.40
16160;DHT22;8185;57.818;15.224;2023-05-20T11:17:58;23.80;52.10
16160;DHT22;8185;57.818;15.224;2023-05-20T11:20:26;23.00;50.00
16160;DHT22;8185;57.818;15.224;2023-05-20T11:22:54;23.60;51.20
16160;DHT22;8185;57.818;15.224;2023-05-20T11:25:22;24.70;51.50
16160;DHT22;8185;57.818;15.224;2023-05-20T11:27:50;24.30;50.40
16160;DHT22;8185;57.818;15.224;2023-05-20T11:30:17;24.70;49.40
16160;DHT22;8185;57.818;15.224;2023-05-20T11:32:57;24.80;49.80
16160;DHT22;8185;57.818;15.224;2023-05-20T11:35:26;25.40;50.80
16160;DHT22;8185;57.818;15.224;2023-05-20T11:38:01;24.50;47.70
16160;DHT22;8185;57.818;15.224;2023-05-20T11:40:29;24.90;49.70
16160;DHT22;8185;57.818;15.224;2023-05-20T11:42:59;25.00;49.40
16160;DHT22;8185;57.818;15.224;2023-05-20T11:45:37;24.10;49.10
16160;DHT22;8185;57.818;15.224;2023-05-20T11:48:07;24.70;52.10
16160;DHT22;8185;57.818;15.224;2023-05-20T11:50:37;25.10;50.10
16160;DHT22;8185;57.818;15.224;2023-05-20T11:53:06;25.10;49.30
16160;DHT22;8185;57.818;15.224;2023-05-20T11:55:43;25.40;47.70
16160;DHT22;8185;57.818;15.224;2023-05-20T11:58:10;25.40;48.60
16160;DHT22;8185;57.818;15.224;2023-05-20T12:00:37;25.80;49.70
16160;DHT22;8185;57.818;15.224;2023-05-20T12:03:06;25.00;50.10
16160;DHT22;8185;57.818;15.224;2023-05-20T12:05:33;24.80;50.00
16160;DHT22;8185;57.818;15.224;2023-05-20T12:08:00;25.10;50.20
16160;DHT22;8185;57.818;15.224;2023-05-20T12:10:28;24.70;48.00
16160;DHT22;8185;57.818;15.224;2023-05-20T12:12:55;24.50;47.10
16160;DHT22;8185;57.818;15.224;2023-05-20T12:15:23;24.90;47.50
16160;DHT22;8185;57.818;15.224;2023-05-20T12:17:52;25.20;47.70
16160;DHT22;8185;57.818;15.224;2023-05-20T12:20:22;24.80;48.10
16160;DHT22;8185;57.818;15.224;2023-05-20T12:22:50;24.60;49.20
16160;DHT22;8185;57.818;15.224;2023-05-20T12:25:18;25.20;48.70
16160;DHT22;8185;57.818;15.224;2023-05-20T12:27:47;25.40;47.90
16160;DHT22;8185;57.818;15.224;2023-05-20T12:30:16;25.60;47.30
16160;DHT22;8185;57.818;15.224;2023-05-20T12:32:43;25.30;43.90
16160;DHT22;8185;57.818;15.224;2023-05-20T12:35:11;24.60;45.60
16160;DHT22;8185;57.818;15.224;2023-05-20T12:37:40;24.80;48.40
16160;DHT22;8185;57.818;15.224;2023-05-20T12:40:10;24.30;46.20
16160;DHT22;8185;57.818;15.224;2023-05-20T12:42:38;24.80;47.50
16160;DHT22;8185;57.818;15.224;2023-05-20T12:45:07;24.80;48.60
16160;DHT22;8185;57.818;15.224;2023-05-20T12:47:35;24.60;50.00
16160;DHT22;8185;57.818;15.224;2023-05-20T12:50:02;24.50;51.10
16160;DHT22;8185;57.818;15.224;2023-05-20T12:52:30;24.40;51.10
16160;DHT22;8185;57.818;15.224;2023-05-20T12:54:58;24.20;48.30
16160;DHT22;8185;57.818;15.224;2023-05-20T12:57:25;24.10;49.50
16160;DHT22;8185;57.818;15.224;2023-05-20T12:59:53;24.30;52.10
16160;DHT22;8185;57.818;15.224;2023-05-20T13:02:20;24.30;50.20
16160;DHT22;8185;57.818;15.224;2023-05-20T13:04:47;24.40;51.00
16160;DHT22;8185;57.818;15.224;2023-05-20T13:07:14;25.00;51.50
16160;DHT22;8185;57.818;15.224;2023-05-20T13:09:43;24.50;52.00
16160;DHT22;8185;57.818;15.224;2023-05-20T13:12:12;24.60;51.70
16160;DHT22;8185;57.818;15.224;2023-05-20T13:14:39;24.80;52.70
16160;DHT22;8185;57.818;15.224;2023-05-20T13:17:07;24.70;53.00
16160;DHT22;8185;57.818;15.224;2023-05-20T13:19:34;25.50;53.50
16160;DHT22;8185;57.818;15.224;2023-05-20T13:22:02;26.00;52.10
16160;DHT22;8185;57.818;15.224;2023-05-20T13:24:33;26.20;50.70
16160;DHT22;8185;57.818;15.224;2023-05-20T13:27:01;27.10;48.30
16160;DHT22;8185;57.818;15.224;2023-05-20T13:29:30;26.70;48.90
16160;DHT22;8185;57.818;15.224;2023-05-20T13:31:57;26.50;48.80
16160;DHT22;8185;57.818;15.224;2023-05-20T13:34:24;25.80;49.60
16160;DHT22;8185;57.818;15.224;2023-05-20T13:36:51;26.60;49.20
16160;DHT22;8185;57.818;15.224;2023-05-20T13:39:18;27.30;49.00
16160;DHT22;8185;57.818;15.224;2023-05-20T13:41:46;27.70;49.60
16160;DHT22;8185;57.818;15.224;2023-05-20T13:44:13;27.70;50.50
16160;DHT22;8185;57.818;15.224;2023-05-20T13:46:42;28.10;50.20
16160;DHT22;8185;57.818;15.224;2023-05-20T13:49:09;27.90;47.80
16160;DHT22;8185;57.818;15.224;2023-05-20T13:51:37;27.80;48.80
16160;DHT22;8185;57.818;15.224;2023-05-20T13:54:04;28.20;50.30
16160;DHT22;8185;57.818;15.224;2023-05-20T13:56:31;28.30;49.30
16160;DHT22;8185;57.818;15.224;2023-05-20T13:58:58;27.80;46.70
16160;DHT22;8185;57.818;15.224;2023-05-20T14:01:26;28.60;48.20
16160;DHT22;8185;57.818;15.224;2023-05-20T14:03:55;28.20;48.10
16160;DHT22;8185;57.818;15.224;2023-05-20T14:06:22;28.90;49.00
16160;DHT22;8185;57.818;15.224;2023-05-20T14:08:49;29.40;48.70
16160;DHT22;8185;57.818;15.224;2023-05-20T14:11:17;29.30;46.70
16160;DHT22;8185;57.818;15.224;2023-05-20T14:13:45;29.20;46.20
16160;DHT22;8185;57.818;15.224;2023-05-20T14:16:12;29.00;46.90
16160;DHT22;8185;57.818;15.224;2023-05-20T14:18:39;28.90;46.10
16160;DHT22;8185;57.818;15.224;2023-05-20T14:21:10;29.30;47.00
16160;DHT22;8185;57.818;15.224;2023-05-20T14:23:38;29.40;47.50
16160;DHT22;8185;57.818;15.224;2023-05-20T14:26:09;29.30;45.80
16160;DHT22;8185;57.818;15.224;2023-05-20T14:28:36;29.10;44.80
16160;DHT22;8185;57.818;15.224;2023-05-20T14:31:04;28.80;45.70
16160;DHT22;8185;57.818;15.224;2023-05-20T14:33:31;29.20;47.20
16160;DHT22;8185;57.818;15.224;2023-05-20T14:35:58;29.10;47.10
16160;DHT22;8185;57.818;15.224;2023-05-20T14:38:27;29.20;46.00
16160;DHT22;8185;57.818;15.224;2023-05-20T14:40:55;28.80;45.50
16160;DHT22;8185;57.818;15.224;2023-05-20T14:43:25;29.10;45.10
16160;DHT22;8185;57.818;15.224;2023-05-20T14:45:54;29.60;44.80
16160;DHT22;8185;57.818;15.224;2023-05-20T14:48:21;29.50;44.20
16160;DHT22;8185;57.818;15.224;2023-05-20T14:50:49;29.00;44.60
16160;DHT22;8185;57.818;15.224;2023-05-20T14:53:16;29.70;42.80
16160;DHT22;8185;57.818;15.224;2023-05-20T14:55:45;29.50;42.70
16160;DHT22;8185;57.818;15.224;2023-05-20T14:58:13;29.30;41.50
16160;DHT22;8185;57.818;15.224;2023-05-20T15:00:47;29.90;43.90
16160;DHT22;8185;57.818;15.224;2023-05-20T15:03:14;30.40;42.10
16160;DHT22;8185;57.818;15.224;2023-05-20T15:05:42;29.90;42.90
16160;DHT22;8185;57.818;15.224;2023-05-20T15:08:09;30.10;42.90
16160;DHT22;8185;57.818;15.224;2023-05-20T15:10:36;30.10;42.90
16160;DHT22;8185;57.818;15.224;2023-05-20T15:13:05;30.70;41.10
16160;DHT22;8185;57.818;15.224;2023-05-20T15:15:32;29.90;40.40
16160;DHT22;8185;57.818;15.224;2023-05-20T15:18:00;30.40;40.80
16160;DHT22;8185;57.818;15.224;2023-05-20T15:20:27;30.00;39.80
16160;DHT22;8185;57.818;15.224;2023-05-20T15:22:55;30.50;40.80
16160;DHT22;8185;57.818;15.224;2023-05-20T15:25:22;30.80;41.60
16160;DHT22;8185;57.818;15.224;2023-05-20T15:27:49;30.00;40.70
16160;DHT22;8185;57.818;15.224;2023-05-20T15:30:18;30.80;42.70
16160;DHT22;8185;57.818;15.224;2023-05-20T15:32:47;30.20;42.60
16160;DHT22;8185;57.818;15.224;2023-05-20T15:35:14;30.30;41.40
16160;DHT22;8185;57.818;15.224;2023-05-20T15:37:41;30.00;42.30
16160;DHT22;8185;57.818;15.224;2023-05-20T15:40:09;30.20;43.20
16160;DHT22;8185;57.818;15.224;2023-05-20T15:42:37;30.10;43.30
16160;DHT22;8185;57.818;15.224;2023-05-20T15:45:08;29.80;43.10